Time;durP1;ratioP1;P1;durP2;ratioP2;P2;SDS_P1;SDS_P2;PMS_P1;PMS_P2;Temp;Humidity;BMP_temperature;BMP_pressure;BME280_temperature;BME280_humidity;BME280_pressure;Samples;Min_cycle;Max_cycle;Signal;HPM_P1;HPM_P2
2022/06/07 00:01:26;;;;;;;2.17;1.97;;;17.80;99.90;;;;;;6091873;23;20523;-78
2022/06/07 00:03:53;;;;;;;2.33;2.03;;;17.70;99.90;;;;;;6091805;23;20551;-78
2022/06/07 00:06:20;;;;;;;1.70;1.60;;;17.70;99.90;;;;;;6091688;23;20472;-78
2022/06/07 00:08:51;;;;;;;2.03;1.73;;;17.60;99.90;;;;;;6091660;23;20865;-78
2022/06/07 00:11:18;;;;;;;1.97;1.87;;;17.60;99.90;;;;;;6091979;23;20453;-78
2022/06/07 00:13:46;;;;;;;2.10;1.97;;;17.60;99.90;;;;;;6091193;23;20484;-78
2022/06/07 00:16:13;;;;;;;2.70;1.80;;;17.60;99.90;;;;;;6091437;23;20473;-78
2022/06/07 00:18:40;;;;;;;1.77;1.67;;;17.50;99.90;;;;;;6091873;23;20937;-78
2022/06/07 00:21:07;;;;;;;1.73;1.63;;;17.50;99.90;;;;;;6091660;23;20981;-78
2022/06/07 00:23:35;;;;;;;2.80;2.00;;;17.60;99.90;;;;;;6092247;23;20499;-78
2022/06/07 00:26:04;;;;;;;3.40;1.77;;;17.60;99.90;;;;;;6090709;23;20506;-78
2022/06/07 00:28:31;;;;;;;1.80;1.70;;;17.60;99.90;;;;;;6091833;23;20484;-78
2022/06/07 00:30:58;;;;;;;1.80;1.70;;;17.70;99.90;;;;;;6091788;23;20841;-78
2022/06/07 00:33:26;;;;;;;1.93;1.53;;;17.70;99.90;;;;;;6091534;23;20476;-78
2022/06/07 00:35:53;;;;;;;1.40;1.30;;;17.70;99.90;;;;;;6091345;23;20791;-78
2022/06/07 00:38:20;;;;;;;1.87;1.77;;;17.70;99.90;;;;;;6091045;23;20849;-78
2022/06/07 00:40:47;;;;;;;2.50;1.70;;;17.60;99.90;;;;;;6091851;23;20438;-78
2022/06/07 00:43:16;;;;;;;2.50;2.00;;;17.60;99.90;;;;;;6091760;23;20465;-78
2022/06/07 00:45:43;;;;;;;1.90;1.50;;;17.60;99.90;;;;;;6091436;23;20545;-78
2022/06/07 00:48:10;;;;;;;1.93;1.60;;;17.60;99.90;;;;;;6091085;23;20529;-78
2022/06/07 00:50:44;;;;;;;1.50;1.40;;;17.50;99.90;;;;;;6091703;23;20516;-78
2022/06/07 00:53:27;;;;;;;3.50;1.53;;;17.50;99.90;;;;;;6091136;23;20513;-78
2022/06/07 00:55:55;;;;;;;2.07;1.73;;;17.40;99.90;;;;;;6087685;23;20535;-78
2022/06/07 00:58:25;;;;;;;1.40;1.30;;;17.40;99.90;;;;;;6091697;23;20441;-78
2022/06/07 01:00:53;;;;;;;1.63;1.53;;;17.40;99.90;;;;;;6092425;23;20957;-78
2022/06/07 01:03:21;;;;;;;1.50;1.40;;;17.30;99.90;;;;;;6092433;23;20439;-78
2022/06/07 01:05:47;;;;;;;2.00;1.47;;;17.30;99.90;;;;;;6092423;23;20458;-78
2022/06/07 01:10:59;;;;;;;1.73;1.40;;;17.30;99.90;;;;;;6092583;23;20950;-78
2022/06/07 01:13:32;;;;;;;1.60;1.50;;;17.20;99.90;;;;;;6092251;23;20523;-78
2022/06/07 01:16:01;;;;;;;1.37;1.27;;;17.20;99.90;;;;;;6091985;23;20438;-77
2022/06/07 01:18:29;;;;;;;1.30;1.20;;;17.10;99.90;;;;;;6092497;23;20475;-78
2022/06/07 01:21:16;;;;;;;1.87;1.30;;;17.10;99.90;;;;;;6092457;23;20961;-78
2022/06/07 01:23:43;;;;;;;1.50;1.40;;;17.00;99.90;;;;;;6092402;23;20809;-78
2022/06/07 01:26:10;;;;;;;1.80;1.70;;;17.00;99.90;;;;;;6092058;23;20434;-78
2022/06/07 01:28:37;;;;;;;2.37;1.83;;;16.90;99.90;;;;;;6092278;23;20496;-78
2022/06/07 01:31:05;;;;;;;4.50;1.83;;;16.90;99.90;;;;;;6092403;23;20974;-78
2022/06/07 01:33:32;;;;;;;1.53;1.43;;;16.90;99.90;;;;;;6092607;23;20606;-78
2022/06/07 01:36:04;;;;;;;1.40;1.30;;;16.90;99.90;;;;;;6091913;23;20961;-78
2022/06/07 01:38:33;;;;;;;2.83;1.60;;;16.90;99.90;;;;;;6092141;23;20530;-78
2022/06/07 01:43:45;;;;;;;2.00;1.80;;;16.80;99.90;;;;;;6092560;23;20964;-78
2022/06/07 01:46:12;;;;;;;2.13;1.50;;;16.70;99.90;;;;;;6092050;23;20845;-78
2022/06/07 01:48:39;;;;;;;1.83;1.73;;;16.60;99.90;;;;;;6092349;23;20477;-78
2022/06/07 01:51:09;;;;;;;1.83;1.63;;;16.50;99.90;;;;;;6092600;23;20523;-78
2022/06/07 01:53:39;;;;;;;2.30;2.10;;;16.30;99.90;;;;;;6092063;23;20559;-78
2022/06/07 01:56:10;;;;;;;2.60;1.80;;;16.10;99.90;;;;;;6091906;23;20833;-78
2022/06/07 01:58:38;;;;;;;1.67;1.57;;;15.90;99.90;;;;;;6091974;23;20520;-78
2022/06/07 02:01:06;;;;;;;2.63;1.43;;;15.80;99.90;;;;;;6092644;23;20518;-78
2022/06/07 02:03:33;;;;;;;1.83;1.53;;;15.80;99.90;;;;;;6092840;23;20573;-78
2022/06/07 02:06:03;;;;;;;3.20;1.60;;;15.70;99.90;;;;;;6091410;23;21005;-78
2022/06/07 02:08:30;;;;;;;1.63;1.53;;;15.70;99.90;;;;;;6092242;23;21003;-78
2022/06/07 02:11:06;;;;;;;2.00;1.67;;;15.70;99.90;;;;;;6092368;23;20472;-78
2022/06/07 02:13:33;;;;;;;2.03;1.57;;;15.70;99.90;;;;;;6092194;23;20872;-78
2022/06/07 02:16:00;;;;;;;1.63;1.53;;;15.80;99.90;;;;;;6091977;23;20446;-78
2022/06/07 02:18:27;;;;;;;1.60;1.50;;;15.70;99.90;;;;;;6091958;23;20537;-78
2022/06/07 02:20:56;;;;;;;1.80;1.43;;;15.70;99.90;;;;;;6092383;23;20445;-77
2022/06/07 02:23:24;;;;;;;2.50;1.40;;;15.70;99.90;;;;;;6092256;23;20503;-78
2022/06/07 02:25:53;;;;;;;1.83;1.73;;;15.60;99.90;;;;;;6091857;23;20447;-78
2022/06/07 02:28:25;;;;;;;1.70;1.60;;;15.70;99.90;;;;;;6092272;23;20443;-78
2022/06/07 02:30:53;;;;;;;4.10;1.83;;;15.70;99.90;;;;;;6092289;23;20465;-78
2022/06/07 02:33:22;;;;;;;2.47;1.50;;;15.70;99.90;;;;;;6092012;23;20981;-78
2022/06/07 02:35:49;;;;;;;2.50;1.50;;;15.70;99.90;;;;;;6092261;23;20445;-78
2022/06/07 02:38:17;;;;;;;1.93;1.63;;;15.70;99.90;;;;;;6092901;23;20442;-78
2022/06/07 02:40:46;;;;;;;1.87;1.40;;;15.70;99.90;;;;;;6091756;23;20470;-77
2022/06/07 02:43:12;;;;;;;2.00;1.80;;;15.70;99.90;;;;;;6092111;23;20442;-77
2022/06/07 02:45:41;;;;;;;1.37;1.27;;;15.70;99.90;;;;;;6091681;23;20449;-77
2022/06/07 02:48:09;;;;;;;1.43;1.33;;;15.70;99.90;;;;;;6092305;23;20513;-77
2022/06/07 02:50:36;;;;;;;1.87;1.50;;;15.70;99.90;;;;;;6092296;23;20442;-77
2022/06/07 02:53:05;;;;;;;1.83;1.23;;;15.70;99.90;;;;;;6091986;23;20967;-77
2022/06/07 02:55:33;;;;;;;1.70;1.33;;;15.80;99.90;;;;;;6091286;23;20848;-77
2022/06/07 02:58:00;;;;;;;2.50;1.40;;;15.80;99.90;;;;;;6090907;23;20759;-77
2022/06/07 03:00:27;;;;;;;2.20;1.20;;;15.80;99.90;;;;;;6091604;23;20459;-77
2022/06/07 03:02:55;;;;;;;1.60;1.50;;;15.80;99.90;;;;;;6092392;23;20513;-77
2022/06/07 03:05:22;;;;;;;1.27;1.17;;;15.90;99.90;;;;;;6091762;23;20463;-77
2022/06/07 03:07:50;;;;;;;2.10;1.30;;;15.80;99.90;;;;;;6092630;23;20473;-77
2022/06/07 03:10:18;;;;;;;1.23;1.13;;;15.80;99.90;;;;;;6091891;23;20437;-77
2022/06/07 03:12:45;;;;;;;1.50;1.20;;;15.80;99.90;;;;;;6091749;23;20434;-77
2022/06/07 03:15:13;;;;;;;3.53;1.43;;;15.80;99.90;;;;;;6091654;23;20474;-77
2022/06/07 03:17:41;;;;;;;2.17;1.40;;;15.80;99.90;;;;;;6091823;23;20442;-77
2022/06/07 03:20:11;;;;;;;2.30;1.27;;;15.80;99.90;;;;;;6092323;23;20449;-77
2022/06/07 03:22:38;;;;;;;1.43;1.30;;;15.80;99.90;;;;;;6091286;23;20458;-77
2022/06/07 03:25:07;;;;;;;1.87;1.50;;;15.80;99.90;;;;;;6090936;23;20527;-77
2022/06/07 03:27:35;;;;;;;1.67;1.37;;;15.80;99.90;;;;;;6091997;23;20454;-77
2022/06/07 03:30:02;;;;;;;2.07;1.60;;;15.80;99.90;;;;;;6092043;23;20442;-77
2022/06/07 03:32:29;;;;;;;1.53;1.43;;;15.80;99.90;;;;;;6092053;23;20443;-77
2022/06/07 03:34:56;;;;;;;1.97;1.33;;;15.90;99.90;;;;;;6091498;23;20478;-77
2022/06/07 03:37:24;;;;;;;2.20;1.53;;;15.90;99.90;;;;;;6091537;23;20470;-77
2022/06/07 03:39:51;;;;;;;1.50;1.40;;;16.00;99.90;;;;;;6091929;23;20445;-77
2022/06/07 03:42:19;;;;;;;2.20;1.30;;;15.90;99.90;;;;;;6092079;23;20438;-77
2022/06/07 03:44:48;;;;;;;2.03;1.57;;;16.00;99.90;;;;;;6091368;23;20464;-77
2022/06/07 03:47:15;;;;;;;1.70;1.20;;;15.90;99.90;;;;;;6091669;23;20450;-77
2022/06/07 03:49:42;;;;;;;1.50;1.40;;;15.90;99.90;;;;;;6091622;23;20466;-77
2022/06/07 03:52:10;;;;;;;1.40;1.30;;;15.90;99.90;;;;;;6091752;23;20651;-77
2022/06/07 03:54:39;;;;;;;1.50;1.40;;;15.90;99.90;;;;;;6091524;23;20562;-77
2022/06/07 03:57:07;;;;;;;2.30;1.30;;;16.00;99.90;;;;;;6091770;23;20445;-77
2022/06/07 03:59:34;;;;;;;1.50;1.40;;;16.10;99.90;;;;;;6091604;23;20992;-77
2022/06/07 04:02:01;;;;;;;2.30;1.43;;;16.20;99.90;;;;;;6091762;23;20435;-77
2022/06/07 04:04:28;;;;;;;2.40;1.70;;;16.20;99.90;;;;;;6091748;23;20551;-77
2022/06/07 04:09:41;;;;;;;1.63;1.47;;;16.20;99.90;;;;;;6091570;23;20513;-77
2022/06/07 04:12:09;;;;;;;2.10;1.60;;;16.10;99.90;;;;;;6091605;23;20988;-78
2022/06/07 04:14:37;;;;;;;1.57;1.47;;;16.10;99.90;;;;;;6091305;23;20471;-77
2022/06/07 04:17:04;;;;;;;1.73;1.63;;;16.10;99.90;;;;;;6091563;23;20457;-78
2022/06/07 04:19:33;;;;;;;1.97;1.50;;;16.10;99.90;;;;;;6091544;23;20805;-78
2022/06/07 04:22:00;;;;;;;1.47;1.37;;;16.10;99.90;;;;;;6091664;23;20529;-78
2022/06/07 04:24:27;;;;;;;1.50;1.30;;;16.20;99.90;;;;;;6091467;23;20504;-78
2022/06/07 04:26:56;;;;;;;1.50;1.40;;;16.20;99.90;;;;;;6091574;23;20513;-78
2022/06/07 04:29:23;;;;;;;1.87;1.67;;;16.20;99.90;;;;;;6091684;23;20435;-77
2022/06/07 04:31:50;;;;;;;1.83;1.60;;;16.20;99.90;;;;;;6091686;23;20439;-78
2022/06/07 04:34:19;;;;;;;1.57;1.47;;;16.20;99.90;;;;;;6091613;23;20556;-77
2022/06/07 04:36:46;;;;;;;1.50;1.30;;;16.20;99.90;;;;;;6091265;23;20439;-78
2022/06/07 04:39:13;;;;;;;1.67;1.57;;;16.20;99.90;;;;;;6091379;23;20917;-78
2022/06/07 04:41:41;;;;;;;1.87;1.43;;;16.20;99.90;;;;;;6091058;23;20788;-78
2022/06/07 04:44:09;;;;;;;2.17;1.60;;;16.20;99.90;;;;;;6091378;23;20448;-77
2022/06/07 04:46:37;;;;;;;1.43;1.27;;;16.20;99.90;;;;;;6091086;23;20929;-77
2022/06/07 04:49:04;;;;;;;1.70;1.60;;;16.20;99.90;;;;;;6091581;23;20439;-78
2022/06/07 04:51:32;;;;;;;1.90;1.70;;;16.30;99.90;;;;;;6091454;23;20529;-77
2022/06/07 04:54:01;;;;;;;2.73;1.80;;;16.30;99.90;;;;;;6091112;23;20462;-78
2022/06/07 04:56:30;;;;;;;1.50;1.40;;;16.40;99.90;;;;;;6090832;23;20530;-78
2022/06/07 04:58:58;;;;;;;3.57;1.43;;;16.50;99.90;;;;;;6065669;23;20438;-78
2022/06/07 05:01:29;;;;;;;1.70;1.60;;;16.50;99.90;;;;;;6091646;23;20850;-78
2022/06/07 05:03:56;;;;;;;1.67;1.57;;;16.40;99.90;;;;;;6091035;23;20475;-78
2022/06/07 05:06:25;;;;;;;1.50;1.40;;;16.50;99.90;;;;;;6090945;23;20526;-78
2022/06/07 05:08:55;;;;;;;1.73;1.63;;;16.50;99.90;;;;;;6091216;23;20522;-77
2022/06/07 05:11:22;;;;;;;1.37;1.10;;;16.50;99.90;;;;;;6091100;23;20501;-77
2022/06/07 05:13:54;;;;;;;3.13;1.47;;;16.60;99.90;;;;;;6083731;23;20481;-89
2022/06/07 05:16:21;;;;;;;2.10;1.63;;;16.60;99.90;;;;;;6070072;23;21008;-88
2022/06/07 05:18:50;;;;;;;1.40;1.30;;;16.60;99.90;;;;;;6064592;23;20437;-88
2022/06/07 05:21:20;;;;;;;3.00;1.33;;;16.70;99.90;;;;;;6064391;23;20464;-88
2022/06/07 05:23:48;;;;;;;1.97;1.20;;;16.70;99.90;;;;;;6063807;23;20461;-88
2022/06/07 05:26:18;;;;;;;1.83;1.40;;;16.70;99.90;;;;;;6064476;23;20787;-88
2022/06/07 05:28:45;;;;;;;1.20;1.10;;;16.70;99.90;;;;;;6064446;23;20510;-89
2022/06/07 05:31:13;;;;;;;2.30;1.20;;;16.80;99.90;;;;;;6063736;23;20505;-89
2022/06/07 05:33:40;;;;;;;1.40;1.30;;;16.80;99.90;;;;;;6065684;23;20468;-88
2022/06/07 05:36:09;;;;;;;1.67;1.30;;;16.80;99.90;;;;;;6063649;23;20443;-89
2022/06/07 05:38:36;;;;;;;1.80;1.20;;;16.90;99.90;;;;;;6064026;23;20475;-88
2022/06/07 05:41:04;;;;;;;1.60;1.50;;;16.90;99.90;;;;;;6064257;23;20478;-88
2022/06/07 05:43:31;;;;;;;1.70;1.53;;;17.00;99.90;;;;;;6068027;23;20456;-88
2022/06/07 05:46:00;;;;;;;3.03;1.70;;;17.10;99.90;;;;;;6071730;23;20845;-88
2022/06/07 05:48:27;;;;;;;1.60;1.50;;;17.10;99.90;;;;;;6066304;23;20469;-88
2022/06/07 05:50:55;;;;;;;2.77;1.60;;;17.30;99.90;;;;;;6065225;23;20479;-88
2022/06/07 05:53:23;;;;;;;1.50;1.40;;;17.30;99.90;;;;;;6063938;23;20538;-89
2022/06/07 05:55:50;;;;;;;2.60;1.50;;;17.40;99.90;;;;;;6063720;23;20492;-88
2022/06/07 05:58:18;;;;;;;2.80;1.47;;;17.50;99.90;;;;;;6063805;23;20438;-89
2022/06/07 06:00:46;;;;;;;1.57;1.30;;;17.60;99.90;;;;;;6064480;23;20437;-89
2022/06/07 06:03:13;;;;;;;1.30;1.20;;;17.70;99.90;;;;;;6063723;23;20780;-89
2022/06/07 06:05:45;;;;;;;1.77;1.50;;;17.80;99.90;;;;;;6063654;23;20453;-89
2022/06/07 06:11:07;;;;;;;1.50;1.40;;;17.80;99.90;;;;;;6063637;23;20625;-89
2022/06/07 06:13:35;;;;;;;1.30;1.20;;;17.80;99.90;;;;;;6063326;23;20505;-89
2022/06/07 06:16:04;;;;;;;2.73;1.27;;;17.90;99.90;;;;;;6063070;23;20439;-89
2022/06/07 06:18:31;;;;;;;1.23;1.10;;;18.00;99.90;;;;;;6063757;23;20458;-89
2022/06/07 06:20:59;;;;;;;2.73;1.73;;;18.20;99.90;;;;;;6063501;23;20522;-88
2022/06/07 06:23:26;;;;;;;1.43;1.17;;;18.30;99.90;;;;;;6065491;23;20459;-89
2022/06/07 06:25:53;;;;;;;1.73;1.63;;;18.50;99.90;;;;;;6065148;23;20448;-89
2022/06/07 06:28:22;;;;;;;1.60;1.40;;;18.60;99.90;;;;;;6064558;23;20518;-87
2022/06/07 06:30:49;;;;;;;1.57;1.10;;;18.50;99.90;;;;;;6066644;23;20439;-88
2022/06/07 06:33:18;;;;;;;2.13;1.23;;;18.40;99.90;;;;;;6068168;23;20459;-89
2022/06/07 06:35:51;;;;;;;1.53;1.43;;;18.40;99.90;;;;;;6064692;23;20556;-88
2022/06/07 06:38:18;;;;;;;1.67;1.33;;;18.60;99.90;;;;;;6064768;23;20446;-88
2022/06/07 06:40:47;;;;;;;1.40;1.30;;;18.60;99.90;;;;;;6064558;23;20442;-88
2022/06/07 06:43:17;;;;;;;8.03;1.67;;;18.70;99.90;;;;;;6066105;23;20497;-89
2022/06/07 06:45:45;;;;;;;1.30;1.20;;;18.80;99.90;;;;;;6065807;23;20446;-88
2022/06/07 06:48:14;;;;;;;2.37;1.33;;;18.70;99.90;;;;;;6065540;23;20786;-88
2022/06/07 06:50:41;;;;;;;1.63;1.10;;;18.80;99.90;;;;;;6066317;23;20469;-87
2022/06/07 06:53:09;;;;;;;1.60;1.50;;;18.80;99.90;;;;;;6066111;23;20486;-89
2022/06/07 06:55:36;;;;;;;1.73;1.37;;;18.90;99.90;;;;;;6065019;23;20573;-89
2022/06/07 06:58:03;;;;;;;1.80;1.10;;;19.00;99.90;;;;;;6065448;23;20439;-89
2022/06/07 07:00:31;;;;;;;1.67;1.20;;;19.00;99.90;;;;;;6065749;23;20444;-90
2022/06/07 07:02:59;;;;;;;4.80;1.30;;;18.90;99.90;;;;;;6065786;23;20438;-90
2022/06/07 07:05:31;;;;;;;1.30;1.20;;;19.10;99.90;;;;;;6064409;23;20497;-89
2022/06/07 07:07:59;;;;;;;3.00;1.20;;;19.20;99.90;;;;;;6065290;23;20499;-88
2022/06/07 07:10:26;;;;;;;1.50;1.33;;;19.20;99.90;;;;;;6066037;23;20859;-89
2022/06/07 07:12:52;;;;;;;1.30;1.20;;;19.30;99.90;;;;;;6065658;23;20478;-89
2022/06/07 07:15:20;;;;;;;1.30;1.20;;;19.40;99.90;;;;;;6074300;23;20487;-90
2022/06/07 07:17:48;;;;;;;1.70;1.10;;;19.70;99.90;;;;;;6070581;23;20446;-89
2022/06/07 07:20:16;;;;;;;1.47;1.10;;;20.00;99.90;;;;;;6065898;23;20439;-90
2022/06/07 07:22:44;;;;;;;1.50;1.17;;;20.30;99.90;;;;;;6065694;23;20435;-89
2022/06/07 07:25:14;;;;;;;1.73;1.23;;;20.40;99.90;;;;;;6064971;23;20428;-87
2022/06/07 07:27:41;;;;;;;1.77;1.20;;;20.30;99.90;;;;;;6066593;23;20447;-89
2022/06/07 07:30:12;;;;;;;4.33;1.43;;;20.30;99.90;;;;;;6065374;23;20506;-88
2022/06/07 07:32:39;;;;;;;1.83;1.23;;;20.30;99.90;;;;;;6065440;23;20444;-89
2022/06/07 07:35:06;;;;;;;2.03;1.17;;;20.30;99.90;;;;;;6065512;23;20558;-89
2022/06/07 07:37:35;;;;;;;3.53;1.67;;;20.50;99.90;;;;;;6063707;23;20431;-88
2022/06/07 07:40:02;;;;;;;1.40;1.20;;;20.70;99.90;;;;;;6064862;23;20439;-88
2022/06/07 07:42:29;;;;;;;1.57;1.17;;;21.00;99.90;;;;;;6065061;23;20914;-87
2022/06/07 07:44:57;;;;;;;1.00;0.90;;;21.40;99.90;;;;;;6069487;23;20460;-88
2022/06/07 07:47:24;;;;;;;1.80;1.30;;;21.80;99.90;;;;;;6087260;23;20443;-88
2022/06/07 07:49:52;;;;;;;1.40;1.20;;;22.00;99.90;;;;;;6077240;23;20943;-88
2022/06/07 07:52:19;;;;;;;1.20;1.10;;;22.10;99.90;;;;;;6063886;23;20470;-89
2022/06/07 07:54:48;;;;;;;1.50;1.00;;;22.10;99.90;;;;;;6063339;23;20467;-89
2022/06/07 07:57:15;;;;;;;2.40;1.10;;;21.90;99.90;;;;;;6063159;23;20791;-88
2022/06/07 07:59:42;;;;;;;1.30;1.00;;;22.30;99.90;;;;;;6063380;23;20522;-88
2022/06/07 08:02:17;;;;;;;1.10;1.00;;;22.80;99.90;;;;;;6063209;23;20442;-88
2022/06/07 08:04:44;;;;;;;2.50;1.07;;;23.20;99.90;;;;;;6063434;23;20493;-89
2022/06/07 08:07:11;;;;;;;1.37;1.13;;;23.80;99.90;;;;;;6063324;23;20525;-89
2022/06/07 08:09:38;;;;;;;3.37;1.27;;;24.20;99.90;;;;;;6062911;23;20787;-89
2022/06/07 08:12:08;;;;;;;1.17;1.03;;;24.20;99.90;;;;;;6063638;23;20514;-88
2022/06/07 08:14:36;;;;;;;2.37;1.50;;;23.80;99.90;;;;;;6062997;23;20475;-89
2022/06/07 08:17:03;;;;;;;1.30;0.90;;;24.00;99.90;;;;;;6063369;23;20474;-88
2022/06/07 08:19:31;;;;;;;1.60;1.17;;;24.40;99.90;;;;;;6063818;23;20519;-88
2022/06/07 08:21:58;;;;;;;1.20;1.03;;;24.40;99.90;;;;;;6063271;23;20442;-88
2022/06/07 08:24:25;;;;;;;0.97;0.87;;;24.50;99.80;;;;;;6063602;23;20462;-88
2022/06/07 08:26:52;;;;;;;1.60;1.00;;;24.80;99.70;;;;;;6063155;23;20446;-88
2022/06/07 08:29:20;;;;;;;2.70;1.20;;;24.80;98.40;;;;;;6066993;23;20931;-88
2022/06/07 08:31:47;;;;;;;1.97;1.10;;;25.00;98.90;;;;;;6066346;23;20809;-88
2022/06/07 08:39:44;;;;;;;2.80;1.33;;;25.80;98.50;;;;;;6066391;23;20462;-89
2022/06/07 08:42:18;;;;;;;1.70;1.00;;;25.00;98.50;;;;;;6066053;23;20443;-89
2022/06/07 08:44:51;;;;;;;2.27;1.23;;;25.00;99.40;;;;;;6066070;23;20458;-88
2022/06/07 08:47:28;;;;;;;1.70;1.17;;;25.40;98.60;;;;;;6076945;23;20430;-88
2022/06/07 08:49:58;;;;;;;1.30;1.20;;;26.10;98.30;;;;;;6067424;23;20423;-89
2022/06/07 08:52:30;;;;;;;1.30;1.20;;;26.80;95.70;;;;;;6065381;23;20442;-88
2022/06/07 08:55:01;;;;;;;2.00;1.00;;;26.90;94.90;;;;;;6065773;23;20487;-88
2022/06/07 08:57:30;;;;;;;1.10;1.00;;;27.30;94.40;;;;;;6064778;23;20470;-88
2022/06/07 09:00:07;;;;;;;1.30;1.00;;;27.50;93.70;;;;;;6063868;23;20919;-88
2022/06/07 09:03:00;;;;;;;1.83;1.10;;;27.50;92.40;;;;;;6068981;23;20506;-88
2022/06/07 09:05:28;;;;;;;2.90;1.40;;;27.70;93.20;;;;;;6071455;23;20435;-88
2022/06/07 09:07:54;;;;;;;2.20;1.10;;;28.20;91.90;;;;;;6070449;23;20531;-89
2022/06/07 09:13:20;;;;;;;1.10;1.00;;;27.60;90.20;;;;;;6069575;23;20462;-89
2022/06/07 09:15:51;;;;;;;1.00;0.90;;;27.50;92.00;;;;;;6074770;23;20462;-89
2022/06/07 09:18:21;;;;;;;2.03;1.40;;;27.50;91.90;;;;;;6080699;23;20434;-88
2022/06/07 09:20:50;;;;;;;2.60;1.17;;;27.50;91.10;;;;;;6076693;23;20443;-89
2022/06/07 09:23:20;;;;;;;1.47;1.00;;;27.70;91.50;;;;;;6075757;23;20462;-89
2022/06/07 09:25:50;;;;;;;1.77;1.00;;;28.50;90.60;;;;;;6078484;23;21010;-89
2022/06/07 09:28:23;;;;;;;1.00;0.90;;;29.30;89.50;;;;;;6076922;23;20473;-89
2022/06/07 09:31:01;;;;;;;1.33;1.00;;;30.00;86.40;;;;;;6075978;23;20495;-89
2022/06/07 09:33:32;;;;;;;0.93;0.87;;;30.10;81.80;;;;;;6076344;23;20459;-89
2022/06/07 09:36:06;;;;;;;1.40;1.00;;;29.90;81.90;;;;;;6076953;23;20475;-89
2022/06/07 09:38:37;;;;;;;1.20;1.00;;;30.20;79.10;;;;;;6071510;23;20454;-90
2022/06/07 09:41:36;;;;;;;2.37;1.13;;;30.10;77.70;;;;;;6066882;23;20825;-89
2022/06/07 09:44:04;;;;;;;1.27;0.83;;;29.70;77.90;;;;;;6066154;23;20473;-89
2022/06/07 09:46:33;;;;;;;1.00;0.90;;;29.50;76.80;;;;;;6065074;23;20915;-89
2022/06/07 09:49:01;;;;;;;1.30;0.90;;;29.30;78.60;;;;;;6066601;23;20447;-89
2022/06/07 09:51:37;;;;;;;2.40;0.90;;;29.20;76.60;;;;;;6065522;23;20830;-89
2022/06/07 09:54:13;;;;;;;1.03;0.90;;;29.00;75.60;;;;;;6065711;23;20513;-88
2022/06/07 09:56:47;;;;;;;1.23;1.00;;;28.30;76.40;;;;;;6064512;23;20543;-88
2022/06/07 09:59:29;;;;;;;3.13;1.20;;;27.70;78.40;;;;;;6065315;23;20459;-89
2022/06/07 10:02:08;;;;;;;1.20;0.90;;;26.70;80.70;;;;;;6065846;23;20469;-89
2022/06/07 10:04:46;;;;;;;1.60;1.10;;;26.20;83.30;;;;;;6065968;23;20451;-89
2022/06/07 10:07:19;;;;;;;1.43;1.10;;;26.20;83.30;;;;;;6064744;23;20435;-89
2022/06/07 10:10:02;;;;;;;2.10;0.90;;;26.60;84.30;;;;;;6040434;23;20738;-88
2022/06/07 10:12:39;;;;;;;1.33;0.80;;;26.90;81.50;;;;;;6063832;23;20471;-88
2022/06/07 10:15:26;;;;;;;2.03;0.90;;;27.30;80.50;;;;;;6064488;23;20455;-90
2022/06/07 10:18:13;;;;;;;1.13;0.90;;;27.40;81.40;;;;;;6072580;23;20431;-89
2022/06/07 10:21:14;;;;;;;1.63;1.07;;;27.60;81.30;;;;;;6067677;23;20430;-88
2022/06/07 10:23:59;;;;;;;2.93;1.07;;;27.40;80.70;;;;;;6063783;23;20455;-89
2022/06/07 10:26:37;;;;;;;1.47;1.03;;;26.70;81.10;;;;;;6063376;23;21005;-89
2022/06/07 10:29:27;;;;;;;2.23;1.20;;;26.10;83.30;;;;;;6063962;23;20439;-89
2022/06/07 10:32:01;;;;;;;1.10;1.00;;;26.50;84.10;;;;;;6063725;23;20546;-89
2022/06/07 10:34:36;;;;;;;1.33;1.03;;;27.10;80.80;;;;;;6063812;23;20494;-89
2022/06/07 10:37:17;;;;;;;1.00;0.90;;;27.30;79.60;;;;;;6074654;23;20534;-88
2022/06/07 10:40:03;;;;;;;0.93;0.87;;;27.50;80.40;;;;;;6064412;23;20921;-89
2022/06/07 10:42:38;;;;;;;1.43;1.00;;;26.80;80.00;;;;;;6063964;23;20786;-88
2022/06/07 10:45:14;;;;;;;1.10;1.00;;;25.80;82.00;;;;;;6063436;23;20470;-89
2022/06/07 10:47:47;;;;;;;1.77;1.20;;;24.90;84.10;;;;;;6063844;23;20427;-88
2022/06/07 10:50:20;;;;;;;1.63;1.30;;;24.20;86.40;;;;;;6063789;23;20435;-88
2022/06/07 10:52:57;;;;;;;1.77;1.00;;;23.80;87.00;;;;;;6063430;23;20466;-89
2022/06/07 10:55:32;;;;;;;1.70;1.20;;;23.60;87.90;;;;;;6063135;23;20454;-89
2022/06/07 10:58:07;;;;;;;2.10;1.20;;;23.50;88.80;;;;;;6063720;23;20439;-88
2022/06/07 11:00:40;;;;;;;1.23;1.13;;;23.60;87.70;;;;;;6063571;23;20439;-88
2022/06/07 11:03:20;;;;;;;1.00;0.90;;;23.90;86.30;;;;;;6063420;23;20526;-89
2022/06/07 11:09:20;;;;;;;3.13;0.90;;;25.20;85.20;;;;;;5976318;24;20525;-88
2022/06/07 11:11:50;;;;;;;1.63;1.00;;;26.30;85.00;;;;;;6061611;23;20439;-89
2022/06/07 11:14:39;;;;;;;1.63;1.13;;;27.20;81.20;;;;;;6063580;23;20530;-89
2022/06/07 11:17:15;;;;;;;1.20;1.00;;;26.90;80.40;;;;;;6062943;23;20463;-88
2022/06/07 11:19:43;;;;;;;1.37;1.10;;;26.70;80.70;;;;;;6063690;23;20424;-88
2022/06/07 11:22:18;;;;;;;2.10;1.10;;;26.20;83.10;;;;;;6063359;23;20877;-88
2022/06/07 11:24:59;;;;;;;1.00;0.90;;;25.40;83.00;;;;;;6038314;23;20803;-88
2022/06/07 11:27:30;;;;;;;1.00;0.90;;;24.60;85.50;;;;;;6063004;23;20469;-89
2022/06/07 11:30:21;;;;;;;1.50;1.20;;;24.10;87.00;;;;;;6063581;23;20442;-89
2022/06/07 11:32:54;;;;;;;1.10;1.00;;;23.60;87.50;;;;;;6063111;23;20466;-89
2022/06/07 11:35:48;;;;;;;1.63;1.10;;;23.50;89.50;;;;;;6063249;23;20462;-89
2022/06/07 11:38:54;;;;;;;1.20;1.10;;;23.30;90.10;;;;;;6063510;23;20447;-89
2022/06/07 11:41:51;;;;;;;0.90;0.83;;;23.10;90.90;;;;;;6046484;23;20450;-89
2022/06/07 11:44:57;;;;;;;1.40;1.10;;;22.70;91.20;;;;;;5997859;23;20988;-89
2022/06/07 11:47:29;;;;;;;1.30;1.10;;;22.40;91.90;;;;;;6063074;23;20439;-89
2022/06/07 11:50:00;;;;;;;1.30;1.13;;;22.30;92.90;;;;;;6074790;23;20503;-88
2022/06/07 11:52:29;;;;;;;1.47;1.20;;;22.40;93.30;;;;;;6066106;23;20424;-89
2022/06/07 11:54:59;;;;;;;2.03;1.30;;;22.50;94.10;;;;;;6063466;23;20471;-88
2022/06/07 11:57:33;;;;;;;2.93;1.30;;;23.00;94.30;;;;;;6062672;23;20818;-89
2022/06/07 12:00:05;;;;;;;1.40;1.30;;;23.70;93.50;;;;;;6037916;23;20444;-89
2022/06/07 12:02:34;;;;;;;2.27;1.00;;;24.50;92.60;;;;;;6063275;23;20435;-89
2022/06/07 12:05:18;;;;;;;1.60;1.10;;;25.70;91.20;;;;;;6063198;23;20486;-90
2022/06/07 12:07:53;;;;;;;1.80;1.20;;;26.50;90.00;;;;;;6065948;23;20439;-88
2022/06/07 12:10:27;;;;;;;1.33;1.00;;;26.30;86.00;;;;;;6065287;23;20431;-89
2022/06/07 12:12:58;;;;;;;2.60;1.30;;;25.80;88.40;;;;;;6064803;23;20459;-88
2022/06/07 12:15:29;;;;;;;1.33;1.23;;;25.30;90.20;;;;;;6065251;23;20490;-89
2022/06/07 12:17:59;;;;;;;2.67;1.20;;;24.90;90.30;;;;;;6064115;23;20439;-89
2022/06/07 12:20:31;;;;;;;1.20;1.10;;;24.60;90.40;;;;;;6068935;23;20510;-88
2022/06/07 12:23:11;;;;;;;1.13;1.03;;;24.30;90.80;;;;;;6065209;23;20452;-89
2022/06/07 12:25:38;;;;;;;1.63;1.23;;;24.10;91.00;;;;;;6064375;23;20910;-89
2022/06/07 12:28:08;;;;;;;1.90;1.20;;;23.80;91.30;;;;;;6065431;23;20475;-88
2022/06/07 12:30:37;;;;;;;1.40;1.20;;;23.40;91.50;;;;;;6067929;23;20440;-90
2022/06/07 12:33:15;;;;;;;1.70;1.20;;;23.10;91.80;;;;;;6065699;23;20456;-90
2022/06/07 12:35:59;;;;;;;1.90;1.37;;;22.90;92.40;;;;;;6064849;23;20419;-90
2022/06/07 12:38:26;;;;;;;2.70;1.00;;;22.80;91.70;;;;;;6064629;23;20439;-89
2022/06/07 12:41:02;;;;;;;1.60;1.20;;;22.80;92.70;;;;;;6065569;23;20439;-90
2022/06/07 12:43:34;;;;;;;1.10;1.00;;;23.30;92.40;;;;;;6064910;23;20956;-90
2022/06/07 12:46:04;;;;;;;2.13;1.20;;;24.20;91.40;;;;;;6064349;23;20443;-87
2022/06/07 12:48:39;;;;;;;2.17;1.20;;;25.40;91.00;;;;;;6064335;23;20843;-88
2022/06/07 12:51:28;;;;;;;1.10;0.80;;;26.50;90.10;;;;;;6065491;23;20427;-89
2022/06/07 12:54:01;;;;;;;1.53;1.20;;;28.00;87.40;;;;;;6064980;23;21160;-89
2022/06/07 12:56:30;;;;;;;1.43;1.33;;;28.60;85.00;;;;;;6066514;23;20462;-90
2022/06/07 12:59:00;;;;;;;3.40;1.00;;;28.10;83.60;;;;;;6066039;23;20562;-89
2022/06/07 13:01:35;;;;;;;1.83;1.20;;;27.30;84.30;;;;;;6066297;23;20439;-89
2022/06/07 13:04:07;;;;;;;2.03;1.13;;;26.60;85.90;;;;;;6065706;23;20482;-89
2022/06/07 13:06:35;;;;;;;1.47;1.07;;;26.10;86.20;;;;;;6066097;23;20477;-88
2022/06/07 13:09:06;;;;;;;1.53;1.00;;;26.00;89.00;;;;;;6067236;23;20435;-88
2022/06/07 13:11:37;;;;;;;1.00;0.93;;;25.70;87.40;;;;;;6067846;23;20486;-89
2022/06/07 13:14:06;;;;;;;1.67;1.10;;;25.20;88.90;;;;;;6063991;23;20586;-88
2022/06/07 13:16:39;;;;;;;2.00;1.43;;;24.70;89.30;;;;;;6063680;23;21008;-89
2022/06/07 13:19:21;;;;;;;1.07;0.97;;;24.10;90.60;;;;;;6064096;23;20462;-89
2022/06/07 13:22:04;;;;;;;1.27;0.90;;;23.80;91.90;;;;;;6075462;23;20424;-88
2022/06/07 13:24:42;;;;;;;1.40;1.20;;;23.70;92.10;;;;;;6082480;23;20451;-88
2022/06/07 13:27:40;;;;;;;1.83;1.30;;;24.00;92.50;;;;;;6090774;23;20407;-88
2022/06/07 13:30:15;;;;;;;1.67;1.40;;;24.40;92.20;;;;;;6064086;23;20513;-89